createdAt,value
2023-09-23T00:00:54.308Z,1.00
2023-09-23T00:03:24.713Z,0.90
2023-09-23T00:05:54.001Z,1.00
2023-09-23T00:08:22.214Z,1.00
2023-09-23T00:10:52.165Z,0.87
2023-09-23T00:13:22.853Z,0.80
2023-09-23T00:15:51.839Z,1.00
2023-09-23T00:18:20.068Z,1.00
2023-09-23T00:20:48.557Z,1.00
2023-09-23T00:23:17.103Z,1.20
2023-09-23T00:25:47.726Z,1.23
2023-09-23T00:28:16.421Z,1.30
2023-09-23T00:30:47.659Z,1.30
2023-09-23T00:33:18.304Z,1.30
2023-09-23T00:35:48.694Z,1.33
2023-09-23T00:38:18.479Z,1.43
2023-09-23T00:40:48.163Z,2.13
2023-09-23T00:43:18.420Z,2.83
2023-09-23T00:45:50.081Z,3.00
2023-09-23T00:48:22.696Z,3.47
2023-09-23T00:50:51.824Z,4.70
2023-09-23T00:53:21.989Z,5.30
2023-09-23T00:55:54.236Z,6.23
2023-09-23T00:58:23.246Z,5.47
2023-09-23T01:00:55.717Z,6.17
2023-09-23T01:03:24.511Z,5.87
2023-09-23T01:06:10.099Z,5.57
2023-09-23T01:08:39.688Z,5.57
2023-09-23T01:11:12.690Z,5.20
2023-09-23T01:13:44.101Z,5.40
2023-09-23T01:16:14.893Z,5.53
2023-09-23T01:18:46.320Z,5.57
2023-09-23T01:21:15.023Z,5.93
2023-09-23T01:23:46.515Z,6.07
2023-09-23T01:26:14.788Z,6.10
2023-09-23T01:28:44.891Z,6.03
2023-09-23T01:31:13.516Z,6.10
2023-09-23T01:33:41.825Z,6.23
2023-09-23T01:36:10.367Z,6.40
2023-09-23T01:38:41.640Z,6.73
2023-09-23T01:41:11.309Z,6.30
2023-09-23T01:43:39.589Z,6.47
2023-09-23T01:46:08.660Z,6.70
2023-09-23T01:48:37.888Z,6.70
2023-09-23T01:51:07.477Z,6.00
2023-09-23T01:53:35.796Z,4.53
2023-09-23T01:56:04.047Z,3.63
2023-09-23T01:58:33.608Z,3.30
2023-09-23T02:01:01.846Z,2.20
2023-09-23T02:03:30.226Z,1.50
2023-09-23T02:05:59.045Z,1.30
2023-09-23T02:08:27.193Z,1.47
2023-09-23T02:10:55.389Z,1.13
2023-09-23T02:13:23.924Z,1.17
2023-09-23T02:15:56.461Z,1.00
2023-09-23T02:18:24.772Z,0.97
2023-09-23T02:20:53.430Z,1.40
2023-09-23T02:23:23.087Z,1.40
2023-09-23T02:25:52.862Z,1.90
2023-09-23T02:28:21.160Z,2.20
2023-09-23T02:30:49.452Z,1.90
2023-09-23T02:33:18.976Z,1.93
2023-09-23T02:35:47.194Z,1.90
2023-09-23T02:38:15.499Z,1.73
2023-09-23T02:40:44.780Z,1.67
2023-09-23T02:43:13.580Z,1.70
2023-09-23T02:45:41.929Z,2.10
2023-09-23T02:48:10.236Z,1.90
2023-09-23T02:50:40.206Z,1.80
2023-09-23T02:53:08.569Z,1.50
2023-09-23T02:55:38.597Z,1.40
2023-09-23T02:58:08.968Z,1.50
2023-09-23T03:00:38.462Z,1.60
2023-09-23T03:03:10.474Z,1.37
2023-09-23T03:05:46.334Z,2.33
2023-09-23T03:08:15.788Z,2.23
2023-09-23T03:10:45.836Z,1.27
2023-09-23T03:13:14.537Z,1.00
2023-09-23T03:15:45.946Z,1.20
2023-09-23T03:18:17.068Z,1.10
2023-09-23T03:20:47.125Z,1.20
2023-09-23T03:23:15.332Z,1.50
2023-09-23T03:25:47.462Z,1.70
2023-09-23T03:28:17.094Z,1.40
2023-09-23T03:30:48.699Z,1.80
2023-09-23T03:33:19.330Z,2.00
2023-09-23T03:35:50.433Z,2.80
2023-09-23T03:38:19.087Z,2.23
2023-09-23T03:40:54.410Z,2.60
2023-09-23T03:43:23.383Z,2.90
2023-09-23T03:45:52.613Z,3.20
2023-09-23T03:48:21.394Z,3.00
2023-09-23T03:50:53.641Z,3.20
2023-09-23T03:53:23.879Z,3.20
2023-09-23T03:55:53.867Z,3.30
2023-09-23T03:58:22.242Z,3.80
2023-09-23T04:00:50.697Z,3.77
2023-09-23T04:03:19.686Z,4.20
2023-09-23T04:05:58.771Z,3.80
2023-09-23T04:08:27.421Z,4.00
2023-09-23T04:10:55.847Z,3.67
2023-09-23T04:13:24.157Z,3.67
2023-09-23T04:15:53.193Z,3.37
2023-09-23T04:18:21.709Z,3.60
2023-09-23T04:20:52.064Z,3.23
2023-09-23T04:23:21.857Z,3.87
2023-09-23T04:25:50.594Z,3.43
2023-09-23T04:28:19.827Z,3.17
2023-09-23T04:30:48.119Z,3.00
2023-09-23T04:33:16.438Z,3.30
2023-09-23T04:35:44.742Z,2.70
2023-09-23T04:38:12.979Z,2.50
2023-09-23T04:40:42.690Z,2.60
2023-09-23T04:43:11.733Z,2.63
2023-09-23T04:45:40.068Z,2.47
2023-09-23T04:48:08.506Z,2.30
2023-09-23T04:50:39.730Z,2.30
2023-09-23T04:53:08.990Z,2.20
2023-09-23T04:55:37.561Z,2.40
2023-09-23T04:58:07.596Z,2.53
2023-09-23T05:00:38.453Z,2.50
2023-09-23T05:03:09.816Z,2.53
2023-09-23T05:05:38.609Z,2.50
2023-09-23T05:08:10.815Z,2.13
2023-09-23T05:10:40.568Z,2.57
2023-09-23T05:13:10.643Z,2.50
2023-09-23T05:15:38.989Z,2.80
2023-09-23T05:18:07.934Z,2.27
2023-09-23T05:20:36.271Z,2.20
2023-09-23T05:23:07.011Z,2.60
2023-09-23T05:25:36.996Z,2.40
2023-09-23T05:28:07.829Z,2.33
2023-09-23T05:30:39.692Z,2.40
2023-09-23T05:33:07.989Z,2.20
2023-09-23T05:35:36.698Z,2.23
2023-09-23T05:38:05.773Z,2.03
2023-09-23T05:40:37.675Z,2.00
2023-09-23T05:43:07.216Z,2.50
2023-09-23T05:45:35.536Z,2.37
2023-09-23T05:48:06.218Z,2.20
2023-09-23T05:50:34.556Z,2.70
2023-09-23T05:53:02.864Z,2.30
2023-09-23T05:55:32.180Z,1.97
2023-09-23T05:58:00.394Z,1.83
2023-09-23T06:00:28.679Z,2.50
2023-09-23T06:02:56.977Z,2.50
2023-09-23T06:05:28.456Z,3.73
2023-09-23T06:07:57.189Z,3.30
2023-09-23T06:10:25.505Z,4.70
2023-09-23T06:12:53.701Z,3.33
2023-09-23T06:15:22.017Z,3.70
2023-09-23T06:17:50.419Z,3.90
2023-09-23T06:20:18.806Z,3.73
2023-09-23T06:22:49.172Z,3.50
2023-09-23T06:25:18.214Z,3.73
2023-09-23T06:27:47.217Z,4.50
2023-09-23T06:30:16.578Z,4.50
2023-09-23T06:32:45.038Z,4.30
2023-09-23T06:35:15.414Z,4.30
2023-09-23T06:37:45.304Z,4.87
2023-09-23T06:40:15.763Z,5.10
2023-09-23T06:42:44.021Z,5.27
2023-09-23T06:45:13.602Z,5.60
2023-09-23T06:47:41.979Z,5.07
2023-09-23T06:50:10.487Z,5.50
2023-09-23T06:52:38.797Z,5.47
2023-09-23T06:55:07.356Z,5.67
2023-09-23T06:57:37.120Z,6.17
2023-09-23T07:00:06.204Z,6.40
2023-09-23T07:02:34.972Z,7.30
2023-09-23T07:05:03.396Z,7.00
2023-09-23T07:07:31.686Z,7.77
2023-09-23T07:09:59.858Z,7.47
2023-09-23T07:12:28.078Z,8.53
2023-09-23T07:14:57.665Z,9.23
2023-09-23T07:17:25.893Z,7.80
2023-09-23T07:19:54.194Z,8.50
2023-09-23T07:22:22.431Z,5.20
2023-09-23T07:24:50.644Z,3.70
2023-09-23T07:27:18.947Z,4.00
2023-09-23T07:29:47.301Z,2.97
2023-09-23T07:32:16.826Z,3.73
2023-09-23T07:34:45.088Z,3.47
2023-09-23T07:37:14.419Z,2.93
2023-09-23T07:39:42.773Z,3.10
2023-09-23T07:42:10.994Z,3.00
2023-09-23T07:44:39.221Z,3.03
2023-09-23T07:47:07.403Z,3.60
2023-09-23T07:49:37.438Z,3.10
2023-09-23T07:52:05.884Z,2.93
2023-09-23T07:54:34.192Z,3.13
2023-09-23T07:57:02.399Z,2.57
2023-09-23T07:59:30.633Z,3.10
2023-09-23T08:01:58.897Z,2.60
2023-09-23T08:04:27.333Z,3.33
2023-09-23T08:06:57.034Z,2.57
2023-09-23T08:09:25.232Z,2.30
2023-09-23T08:11:53.445Z,2.00
2023-09-23T08:14:21.736Z,1.80
2023-09-23T08:16:52.416Z,1.87
2023-09-23T08:19:20.627Z,2.10
2023-09-23T08:21:48.806Z,2.00
2023-09-23T08:24:18.450Z,1.93
2023-09-23T08:26:46.985Z,1.50
2023-09-23T08:29:15.562Z,1.87
2023-09-23T08:31:43.894Z,2.53
2023-09-23T08:34:12.126Z,1.53
2023-09-23T08:36:40.322Z,1.80
2023-09-23T08:39:10.939Z,1.50
2023-09-23T08:41:40.634Z,1.50
2023-09-23T08:44:09.035Z,1.60
2023-09-23T08:46:37.748Z,1.87
2023-09-23T08:49:07.673Z,1.73
2023-09-23T08:51:36.238Z,1.50
2023-09-23T08:54:06.581Z,1.30
2023-09-23T08:56:35.878Z,1.70
2023-09-23T08:59:05.537Z,1.17
2023-09-23T09:01:42.872Z,1.30
2023-09-23T09:04:11.112Z,1.10
2023-09-23T09:06:48.301Z,0.70
2023-09-23T09:09:16.604Z,1.00
2023-09-23T09:11:44.942Z,0.80
2023-09-23T09:14:15.076Z,0.77
2023-09-23T09:16:43.571Z,0.60
2023-09-23T09:19:11.805Z,0.73
2023-09-23T09:21:40.496Z,0.80
2023-09-23T09:24:10.110Z,0.80
2023-09-23T09:26:39.146Z,0.90
2023-09-23T09:29:07.528Z,1.13
2023-09-23T09:31:39.615Z,1.00
2023-09-23T09:34:09.524Z,1.77
2023-09-23T09:36:39.788Z,1.20
2023-09-23T09:39:09.105Z,1.30
2023-09-23T09:41:40.298Z,1.27
2023-09-23T09:44:09.818Z,1.63
2023-09-23T09:46:41.587Z,1.30
2023-09-23T09:49:10.738Z,1.50
2023-09-23T09:51:40.586Z,1.80
2023-09-23T09:54:10.580Z,1.40
2023-09-23T09:56:39.481Z,1.40
2023-09-23T09:59:07.819Z,1.67
2023-09-23T10:01:36.644Z,1.50
2023-09-23T10:04:12.931Z,1.70
2023-09-23T10:06:43.351Z,1.50
2023-09-23T10:09:19.153Z,1.33
2023-09-23T10:11:54.870Z,0.90
2023-09-23T10:14:23.536Z,1.07
2023-09-23T10:16:52.157Z,0.70
2023-09-23T10:19:32.297Z,0.90
2023-09-23T10:22:14.194Z,1.00
2023-09-23T10:24:42.774Z,1.10
2023-09-23T10:27:12.193Z,0.80
2023-09-23T10:29:45.271Z,1.00
2023-09-23T10:32:15.444Z,1.10
2023-09-23T10:34:49.231Z,1.30
2023-09-23T10:37:26.107Z,1.30
2023-09-23T10:39:54.279Z,1.30
2023-09-23T10:42:22.688Z,1.77
2023-09-23T10:44:51.130Z,1.10
2023-09-23T10:47:19.400Z,1.00
2023-09-23T10:49:49.099Z,1.03
2023-09-23T10:52:17.541Z,0.80
2023-09-23T10:54:46.418Z,0.70
2023-09-23T10:57:15.549Z,1.00
2023-09-23T10:59:45.016Z,0.80
2023-09-23T11:02:13.491Z,1.00
2023-09-23T11:04:42.467Z,1.17
2023-09-23T11:07:12.023Z,0.90
2023-09-23T11:09:40.299Z,1.07
2023-09-23T11:12:09.275Z,1.30
2023-09-23T11:14:37.530Z,1.20
2023-09-23T11:17:05.759Z,1.40
2023-09-23T11:19:34.391Z,1.30
2023-09-23T11:22:03.434Z,1.43
2023-09-23T11:24:40.951Z,1.50
2023-09-23T11:27:09.401Z,1.47
2023-09-23T11:29:37.651Z,2.07
2023-09-23T11:32:06.846Z,1.97
2023-09-23T11:34:37.626Z,1.80
2023-09-23T11:37:05.838Z,1.77
2023-09-23T11:39:36.479Z,2.17
2023-09-23T11:42:06.325Z,2.63
2023-09-23T11:44:35.755Z,2.00
2023-09-23T11:47:04.094Z,1.97
2023-09-23T11:49:32.315Z,1.57
2023-09-23T11:52:00.540Z,1.63
2023-09-23T11:54:29.678Z,1.70
2023-09-23T11:56:57.883Z,1.53
2023-09-23T11:59:27.516Z,1.60
2023-09-23T12:01:55.696Z,1.50
2023-09-23T12:04:24.035Z,1.43
2023-09-23T12:06:52.316Z,1.43
2023-09-23T12:09:20.582Z,2.10
2023-09-23T12:11:50.147Z,1.60
2023-09-23T12:14:20.048Z,1.60
2023-09-23T12:16:49.814Z,1.40
2023-09-23T12:19:18.080Z,1.20
2023-09-23T12:21:46.238Z,1.20
2023-09-23T12:24:14.740Z,0.97
2023-09-23T12:26:43.027Z,1.10
2023-09-23T12:29:11.473Z,1.40
2023-09-23T12:31:39.827Z,1.03
2023-09-23T12:34:09.437Z,1.00
2023-09-23T12:36:37.739Z,0.87
2023-09-23T12:39:05.989Z,0.97
2023-09-23T12:41:34.674Z,0.90
2023-09-23T12:44:02.931Z,0.90
2023-09-23T12:46:32.000Z,1.00
2023-09-23T12:49:00.366Z,0.80
2023-09-23T12:51:30.617Z,0.67
2023-09-23T12:53:58.955Z,0.90
2023-09-23T12:56:27.334Z,1.00
2023-09-23T12:58:56.843Z,0.87
2023-09-23T13:01:25.324Z,0.90
2023-09-23T13:03:53.595Z,0.97
2023-09-23T13:06:21.806Z,0.60
2023-09-23T13:08:51.501Z,0.87
2023-09-23T13:11:22.290Z,0.87
2023-09-23T13:13:51.654Z,0.80
2023-09-23T13:16:20.474Z,1.20
2023-09-23T13:18:49.066Z,1.03
2023-09-23T13:21:17.756Z,0.87
2023-09-23T13:23:45.979Z,1.00
2023-09-23T13:26:15.642Z,0.70
2023-09-23T13:28:43.865Z,0.90
2023-09-23T13:31:12.208Z,0.80
2023-09-23T13:33:40.487Z,0.80
2023-09-23T13:36:09.001Z,1.00
2023-09-23T13:38:37.885Z,0.70
2023-09-23T13:41:06.529Z,0.77
2023-09-23T13:43:36.177Z,0.80
2023-09-23T13:46:04.389Z,1.10
2023-09-23T13:48:32.776Z,0.90
2023-09-23T13:51:01.057Z,1.33
2023-09-23T13:53:29.343Z,1.03
2023-09-23T13:55:57.594Z,1.03
2023-09-23T13:58:26.025Z,1.17
2023-09-23T14:00:56.270Z,1.00
2023-09-23T14:03:24.475Z,1.00
2023-09-23T14:05:53.190Z,1.10
2023-09-23T14:08:21.465Z,0.93
2023-09-23T14:10:49.705Z,0.80
2023-09-23T14:13:17.885Z,0.97
2023-09-23T14:15:47.048Z,1.00
2023-09-23T14:18:16.662Z,1.03
2023-09-23T14:20:45.514Z,0.87
2023-09-23T14:23:13.981Z,1.23
2023-09-23T14:25:42.603Z,0.90
2023-09-23T14:28:11.092Z,0.80
2023-09-23T14:30:39.298Z,1.07
2023-09-23T14:33:07.853Z,1.10
2023-09-23T14:35:37.499Z,1.27
2023-09-23T14:38:05.880Z,1.20
2023-09-23T14:40:34.540Z,1.17
2023-09-23T14:43:02.692Z,1.10
2023-09-23T14:45:30.880Z,1.03
2023-09-23T14:47:59.642Z,1.00
2023-09-23T14:50:27.941Z,1.13
2023-09-23T14:52:57.533Z,1.20
2023-09-23T14:55:25.802Z,1.10
2023-09-23T14:57:55.610Z,1.00
2023-09-23T15:00:23.837Z,1.10
2023-09-23T15:02:52.211Z,1.27
2023-09-23T15:05:21.870Z,1.40
2023-09-23T15:07:50.201Z,1.10
2023-09-23T15:10:21.121Z,0.70
2023-09-23T15:12:49.797Z,1.10
2023-09-23T15:15:18.060Z,1.03
2023-09-23T15:17:46.398Z,0.80
2023-09-23T15:20:14.807Z,1.10
2023-09-23T15:22:44.703Z,0.97
2023-09-23T15:25:13.107Z,0.87
2023-09-23T15:27:42.831Z,1.13
2023-09-23T15:30:11.324Z,1.07
2023-09-23T15:32:40.169Z,1.20
2023-09-23T15:35:09.131Z,1.20
2023-09-23T15:37:37.392Z,1.43
2023-09-23T15:40:07.893Z,1.20
2023-09-23T15:42:36.117Z,1.40
2023-09-23T15:45:06.083Z,1.10
2023-09-23T15:47:34.482Z,1.20
2023-09-23T15:50:02.779Z,1.50
2023-09-23T15:52:31.018Z,1.50
2023-09-23T15:54:59.254Z,1.43
2023-09-23T15:57:27.562Z,1.30
2023-09-23T15:59:55.753Z,1.23
2023-09-23T16:02:25.422Z,1.30
2023-09-23T16:04:53.866Z,1.20
2023-09-23T16:07:22.113Z,1.23
2023-09-23T16:09:50.375Z,1.40
2023-09-23T16:12:18.570Z,1.53
2023-09-23T16:14:46.745Z,1.20
2023-09-23T16:17:16.455Z,1.17
2023-09-23T16:19:48.610Z,1.00
2023-09-23T16:22:16.799Z,0.90
2023-09-23T16:24:45.029Z,0.80
2023-09-23T16:27:13.285Z,0.90
2023-09-23T16:29:42.227Z,0.90
2023-09-23T16:32:10.469Z,1.17
2023-09-23T16:34:38.806Z,1.00
2023-09-23T16:37:08.456Z,0.90
2023-09-23T16:39:36.648Z,0.90
2023-09-23T16:42:04.819Z,0.90
2023-09-23T16:44:33.077Z,0.90
2023-09-23T16:47:01.531Z,1.97
2023-09-23T16:49:30.300Z,0.80
2023-09-23T16:51:59.880Z,0.93
2023-09-23T16:54:29.447Z,0.90
2023-09-23T16:56:57.789Z,1.33
2023-09-23T16:59:26.023Z,0.90
2023-09-23T17:01:54.282Z,1.17
2023-09-23T17:04:22.519Z,1.00
2023-09-23T17:06:51.768Z,1.00
2023-09-23T17:09:20.004Z,0.97
2023-09-23T17:11:49.648Z,0.80
2023-09-23T17:14:17.979Z,0.97
2023-09-23T17:16:46.278Z,0.80
2023-09-23T17:19:14.976Z,0.80
2023-09-23T17:21:43.382Z,0.80
2023-09-23T17:24:11.670Z,0.93
2023-09-23T17:26:39.883Z,0.80
2023-09-23T17:29:09.762Z,1.07
2023-09-23T17:31:37.991Z,1.00
2023-09-23T17:34:06.384Z,1.07
2023-09-23T17:36:34.820Z,1.10
2023-09-23T17:39:03.914Z,1.10
2023-09-23T17:41:32.570Z,1.00
2023-09-23T17:44:00.855Z,0.97
2023-09-23T17:46:30.427Z,0.70
2023-09-23T17:48:59.740Z,0.97
2023-09-23T17:51:27.970Z,1.00
2023-09-23T17:53:56.238Z,0.97
2023-09-23T17:56:25.708Z,1.10
2023-09-23T17:58:53.998Z,0.90
2023-09-23T18:01:22.255Z,0.70
2023-09-23T18:03:52.284Z,1.03
2023-09-23T18:06:20.770Z,0.93
2023-09-23T18:08:49.032Z,1.00
2023-09-23T18:11:17.375Z,0.87
2023-09-23T18:13:46.311Z,0.87
2023-09-23T18:16:14.883Z,0.80
2023-09-23T18:18:47.175Z,0.77
2023-09-23T18:21:18.738Z,1.00
2023-09-23T18:23:47.304Z,0.80
2023-09-23T18:26:15.994Z,0.90
2023-09-23T18:28:45.243Z,0.80
2023-09-23T18:31:13.438Z,1.00
2023-09-23T18:33:42.374Z,0.90
2023-09-23T18:36:11.857Z,1.00
2023-09-23T18:38:41.568Z,1.30
2023-09-23T18:41:10.479Z,1.20
2023-09-23T18:43:38.776Z,1.10
2023-09-23T18:46:07.128Z,1.10
2023-09-23T18:48:35.541Z,1.10
2023-09-23T18:51:03.835Z,1.17
2023-09-23T18:53:32.200Z,1.43
2023-09-23T18:56:02.630Z,1.13
2023-09-23T18:58:30.860Z,1.43
2023-09-23T19:00:59.107Z,1.17
2023-09-23T19:03:27.472Z,1.60
2023-09-23T19:05:55.916Z,1.67
2023-09-23T19:08:24.328Z,1.50
2023-09-23T19:10:52.740Z,1.73
2023-09-23T19:13:22.307Z,2.03
2023-09-23T19:15:51.812Z,1.60
2023-09-23T19:18:20.209Z,1.60
2023-09-23T19:20:48.628Z,1.70
2023-09-23T19:23:16.955Z,1.43
2023-09-23T19:25:45.176Z,1.40
2023-09-23T19:28:13.421Z,1.57
2023-09-23T19:30:43.006Z,1.70
2023-09-23T19:33:11.244Z,1.97
2023-09-23T19:35:39.792Z,1.90
2023-09-23T19:38:08.912Z,2.37
2023-09-23T19:40:39.827Z,2.00
2023-09-23T19:43:08.154Z,1.80
2023-09-23T19:45:36.890Z,1.87
2023-09-23T19:48:06.720Z,2.10
2023-09-23T19:50:35.606Z,1.90
2023-09-23T19:53:03.962Z,1.77
2023-09-23T19:55:32.592Z,1.57
2023-09-23T19:58:00.771Z,1.80
2023-09-23T20:00:31.206Z,1.60
2023-09-23T20:02:59.807Z,2.20
2023-09-23T20:05:29.508Z,1.57
2023-09-23T20:07:59.043Z,2.20
2023-09-23T20:10:27.294Z,2.03
2023-09-23T20:12:55.839Z,1.87
2023-09-23T20:15:25.997Z,2.00
2023-09-23T20:17:57.642Z,1.60
2023-09-23T20:20:26.155Z,1.70
2023-09-23T20:22:55.766Z,1.50
2023-09-23T20:25:23.986Z,1.60
2023-09-23T20:27:52.371Z,1.90
2023-09-23T20:30:20.835Z,1.70
2023-09-23T20:32:49.385Z,1.50
2023-09-23T20:35:17.813Z,1.77
2023-09-23T20:37:46.090Z,1.60
2023-09-23T20:40:17.334Z,1.50
2023-09-23T20:42:45.781Z,1.53
2023-09-23T20:45:14.629Z,1.47
2023-09-23T20:47:43.172Z,1.70
2023-09-23T20:50:12.016Z,1.80
2023-09-23T20:52:41.900Z,1.90
2023-09-23T20:55:10.609Z,1.50
2023-09-23T20:57:40.249Z,1.73
2023-09-23T21:00:15.002Z,1.70
2023-09-23T21:02:44.511Z,1.97
2023-09-23T21:05:12.880Z,1.73
2023-09-23T21:07:41.372Z,1.90
2023-09-23T21:10:11.646Z,1.70
2023-09-23T21:12:42.848Z,1.70
2023-09-23T21:15:15.742Z,1.87
2023-09-23T21:17:44.768Z,1.70
2023-09-23T21:20:13.477Z,1.70
2023-09-23T21:22:42.049Z,1.90
2023-09-23T21:25:11.760Z,1.80
2023-09-23T21:27:41.555Z,2.03
2023-09-23T21:30:10.289Z,1.67
2023-09-23T21:32:38.604Z,1.97
2023-09-23T21:35:07.162Z,1.73
2023-09-23T21:37:35.402Z,2.13
2023-09-23T21:40:03.684Z,1.57
2023-09-23T21:42:31.904Z,1.67
2023-09-23T21:45:01.551Z,1.60
2023-09-23T21:47:29.847Z,1.53
2023-09-23T21:49:58.485Z,1.80
2023-09-23T21:52:27.043Z,1.83
2023-09-23T21:54:55.364Z,1.60
2023-09-23T21:57:23.636Z,1.60
2023-09-23T21:59:52.022Z,1.50
2023-09-23T22:02:23.255Z,1.77
2023-09-23T22:04:51.549Z,1.60
2023-09-23T22:07:19.830Z,1.77
2023-09-23T22:09:48.108Z,1.80
2023-09-23T22:12:16.756Z,1.50
2023-09-23T22:14:46.158Z,1.60
2023-09-23T22:17:16.029Z,1.83
2023-09-23T22:19:45.590Z,1.80
2023-09-23T22:22:17.583Z,2.17
2023-09-23T22:24:45.834Z,2.47
2023-09-23T22:27:14.006Z,2.20
2023-09-23T22:29:42.225Z,2.67
2023-09-23T22:32:10.437Z,1.63
2023-09-23T22:34:40.434Z,1.97
2023-09-23T22:37:10.028Z,1.73
2023-09-23T22:39:46.245Z,2.00
2023-09-23T22:42:17.707Z,2.03
2023-09-23T22:44:45.950Z,1.80
2023-09-23T22:47:14.160Z,1.83
2023-09-23T22:49:42.384Z,1.40
2023-09-23T22:52:11.954Z,1.80
2023-09-23T22:54:40.242Z,1.87
2023-09-23T22:57:11.915Z,1.43
2023-09-23T22:59:40.283Z,1.30
2023-09-23T23:02:09.464Z,1.40
2023-09-23T23:04:38.412Z,1.70
2023-09-23T23:07:07.383Z,1.43
2023-09-23T23:09:36.948Z,1.60
2023-09-23T23:12:05.291Z,1.50
2023-09-23T23:14:33.527Z,1.20
2023-09-23T23:17:01.854Z,1.50
2023-09-23T23:19:30.084Z,1.27
2023-09-23T23:21:58.282Z,1.40
2023-09-23T23:24:26.659Z,1.33
2023-09-23T23:26:56.332Z,1.20
2023-09-23T23:29:24.684Z,1.20
2023-09-23T23:31:52.936Z,1.30
2023-09-23T23:34:21.243Z,1.60
2023-09-23T23:36:49.855Z,1.47
2023-09-23T23:39:18.271Z,1.37
2023-09-23T23:41:46.590Z,1.70
2023-09-23T23:44:18.823Z,1.43
2023-09-23T23:46:49.154Z,1.30
2023-09-23T23:49:18.903Z,1.23
2023-09-23T23:51:47.110Z,1.60
2023-09-23T23:54:15.340Z,1.73
2023-09-23T23:56:43.606Z,1.30
2023-09-23T23:59:12.044Z,1.40
